createdAt,value
2018-01-20T00:00:48.441Z,987.59
2018-01-20T00:01:48.461Z,987.54
2018-01-20T00:02:48.487Z,987.50
2018-01-20T00:03:48.518Z,987.55
2018-01-20T00:04:48.556Z,987.51
2018-01-20T00:05:48.573Z,987.54
2018-01-20T00:06:48.604Z,987.53
2018-01-20T00:07:48.640Z,987.56
2018-01-20T00:08:48.672Z,987.55
2018-01-20T00:09:48.692Z,987.55
2018-01-20T00:10:48.722Z,987.55
2018-01-20T00:11:48.756Z,987.50
2018-01-20T00:12:48.982Z,987.48
2018-01-20T00:13:48.812Z,987.48
2018-01-20T00:14:48.838Z,987.46
2018-01-20T00:15:48.873Z,987.45
2018-01-20T00:16:48.900Z,987.44
2018-01-20T00:17:48.932Z,987.44
2018-01-20T00:18:48.956Z,987.45
2018-01-20T00:19:49.189Z,987.44
2018-01-20T00:20:49.016Z,987.48
2018-01-20T00:21:49.049Z,987.47
2018-01-20T00:22:49.072Z,987.46
2018-01-20T00:23:49.103Z,987.49
2018-01-20T00:24:49.139Z,987.48
2018-01-20T00:25:49.164Z,987.49
2018-01-20T00:26:49.193Z,987.49
2018-01-20T00:27:49.225Z,987.50
2018-01-20T00:28:49.254Z,987.52
2018-01-20T00:29:49.288Z,987.53
2018-01-20T00:30:49.372Z,987.54
2018-01-20T00:31:49.343Z,987.55
2018-01-20T00:32:49.368Z,987.54
2018-01-20T00:33:49.396Z,987.57
2018-01-20T00:34:49.427Z,987.56
2018-01-20T00:35:49.457Z,987.56
2018-01-20T00:36:49.491Z,987.60
2018-01-20T00:37:49.515Z,987.60
2018-01-20T00:38:49.545Z,987.60
2018-01-20T00:39:49.635Z,987.59
2018-01-20T00:40:49.606Z,987.57
2018-01-20T00:41:49.636Z,987.57
2018-01-20T00:42:49.667Z,987.55
2018-01-20T00:43:49.695Z,987.55
2018-01-20T00:44:49.726Z,987.53
2018-01-20T00:45:49.750Z,987.51
2018-01-20T00:46:49.779Z,987.52
2018-01-20T00:47:50.124Z,987.56
2018-01-20T00:48:49.855Z,987.53
2018-01-20T00:49:49.870Z,987.63
2018-01-20T00:50:49.896Z,987.53
2018-01-20T00:51:49.930Z,987.53
2018-01-20T00:52:49.957Z,987.57
2018-01-20T00:53:50.192Z,987.57
2018-01-20T00:54:50.134Z,987.59
2018-01-20T00:55:50.042Z,987.56
2018-01-20T00:56:50.072Z,987.59
2018-01-20T00:57:50.101Z,987.59
2018-01-20T00:58:50.131Z,987.56
2018-01-20T00:59:50.159Z,987.57
2018-01-20T01:00:50.188Z,987.61
2018-01-20T01:01:50.221Z,987.61
2018-01-20T01:02:50.254Z,987.65
2018-01-20T01:03:50.278Z,987.62
2018-01-20T01:04:50.509Z,987.63
2018-01-20T01:05:50.334Z,987.60
2018-01-20T01:06:50.379Z,987.61
2018-01-20T01:07:50.400Z,987.60
2018-01-20T01:08:50.421Z,987.58
2018-01-20T01:09:50.459Z,987.56
2018-01-20T01:10:50.479Z,987.54
2018-01-20T01:11:50.520Z,987.54
2018-01-20T01:12:50.541Z,987.57
2018-01-20T01:13:50.567Z,987.54
2018-01-20T01:14:50.803Z,987.55
2018-01-20T01:15:50.625Z,987.53
2018-01-20T01:16:50.662Z,987.55
2018-01-20T01:17:50.685Z,987.53
2018-01-20T01:18:50.712Z,987.53
2018-01-20T01:19:50.740Z,987.51
2018-01-20T01:20:50.770Z,987.53
2018-01-20T01:21:50.805Z,987.54
2018-01-20T01:22:50.829Z,987.56
2018-01-20T01:23:50.885Z,987.54
2018-01-20T01:24:50.889Z,987.53
2018-01-20T01:25:50.916Z,987.53
2018-01-20T01:26:50.943Z,987.56
2018-01-20T01:27:50.972Z,987.56
2018-01-20T01:28:51.002Z,987.54
2018-01-20T01:29:51.043Z,987.54
2018-01-20T01:30:51.166Z,987.52
2018-01-20T01:31:51.298Z,987.48
2018-01-20T01:32:51.274Z,987.50
2018-01-20T01:33:51.151Z,987.56
2018-01-20T01:34:51.174Z,987.55
2018-01-20T01:35:51.203Z,987.53
2018-01-20T01:36:51.230Z,987.53
2018-01-20T01:37:51.269Z,987.55
2018-01-20T01:38:51.308Z,987.52
2018-01-20T01:39:51.326Z,987.59
2018-01-20T01:40:51.422Z,987.58
2018-01-20T01:41:51.384Z,987.54
2018-01-20T01:42:51.408Z,987.57
2018-01-20T01:43:51.435Z,987.62
2018-01-20T01:44:51.465Z,987.58
2018-01-20T01:45:51.495Z,987.58
2018-01-20T01:46:51.523Z,987.56
2018-01-20T01:47:51.624Z,987.52
2018-01-20T01:48:51.593Z,987.57
2018-01-20T01:49:51.620Z,987.50
2018-01-20T01:50:51.638Z,987.53
2018-01-20T01:51:51.667Z,987.55
2018-01-20T01:52:51.699Z,987.55
2018-01-20T01:53:51.736Z,987.52
2018-01-20T01:54:51.754Z,987.55
2018-01-20T01:55:51.792Z,987.51
2018-01-20T01:56:51.813Z,987.52
2018-01-20T01:57:51.843Z,987.51
2018-01-20T01:58:51.874Z,987.47
2018-01-20T01:59:51.904Z,987.50
2018-01-20T02:00:51.930Z,987.47
2018-01-20T02:01:51.959Z,987.44
2018-01-20T02:02:51.987Z,987.45
2018-01-20T02:03:52.025Z,987.46
2018-01-20T02:04:52.048Z,987.52
2018-01-20T02:05:52.086Z,987.48
2018-01-20T02:06:52.450Z,987.42
2018-01-20T02:07:52.143Z,987.45
2018-01-20T02:08:52.165Z,987.47
2018-01-20T02:09:52.190Z,987.46
2018-01-20T02:10:52.221Z,987.46
2018-01-20T02:11:52.250Z,987.47
2018-01-20T02:12:52.280Z,987.46
2018-01-20T02:13:52.317Z,987.41
2018-01-20T02:14:52.341Z,987.45
2018-01-20T02:15:52.366Z,987.46
2018-01-20T02:16:52.398Z,987.48
2018-01-20T02:17:52.440Z,987.49
2018-01-20T02:18:52.451Z,987.46
2018-01-20T02:19:52.481Z,987.45
2018-01-20T02:20:52.512Z,987.42
2018-01-20T02:21:52.542Z,987.42
2018-01-20T02:22:52.570Z,987.37
2018-01-20T02:23:52.926Z,987.44
2018-01-20T02:24:52.629Z,987.42
2018-01-20T02:25:52.657Z,987.36
2018-01-20T02:26:52.687Z,987.34
2018-01-20T02:27:52.721Z,987.37
2018-01-20T02:28:52.747Z,987.39
2018-01-20T02:29:52.773Z,987.34
2018-01-20T02:30:52.862Z,987.33
2018-01-20T02:31:52.831Z,987.32
2018-01-20T02:32:52.871Z,987.29
2018-01-20T02:33:52.921Z,987.30
2018-01-20T02:34:52.921Z,987.26
2018-01-20T02:35:52.949Z,987.25
2018-01-20T02:36:52.978Z,987.28
2018-01-20T02:37:53.009Z,987.33
2018-01-20T02:38:53.042Z,987.34
2018-01-20T02:39:53.071Z,987.31
2018-01-20T02:40:53.152Z,987.30
2018-01-20T02:41:53.129Z,987.30
2018-01-20T02:42:53.152Z,987.28
2018-01-20T02:43:53.179Z,987.24
2018-01-20T02:44:53.215Z,987.20
2018-01-20T02:45:53.248Z,987.23
2018-01-20T02:46:53.269Z,987.19
2018-01-20T02:47:53.371Z,987.20
2018-01-20T02:48:53.328Z,987.18
2018-01-20T02:49:53.360Z,987.18
2018-01-20T02:50:53.386Z,987.16
2018-01-20T02:51:53.412Z,987.17
2018-01-20T02:52:53.445Z,987.20
2018-01-20T02:53:53.474Z,987.18
2018-01-20T02:54:53.501Z,987.21
2018-01-20T02:55:53.530Z,987.18
2018-01-20T02:56:53.561Z,987.24
2018-01-20T02:57:53.590Z,987.21
2018-01-20T02:58:53.620Z,987.16
2018-01-20T02:59:54.020Z,987.13
2018-01-20T03:00:53.679Z,987.17
2018-01-20T03:01:53.707Z,987.19
2018-01-20T03:02:53.734Z,987.21
2018-01-20T03:03:53.764Z,987.22
2018-01-20T03:04:53.795Z,987.19
2018-01-20T03:05:53.826Z,987.23
2018-01-20T03:06:53.851Z,987.20
2018-01-20T03:07:53.883Z,987.21
2018-01-20T03:08:53.912Z,987.18
2018-01-20T03:09:53.945Z,987.19
2018-01-20T03:10:53.969Z,987.17
2018-01-20T03:11:53.998Z,987.12
2018-01-20T03:12:54.030Z,987.07
2018-01-20T03:13:54.065Z,987.05
2018-01-20T03:14:54.085Z,987.09
2018-01-20T03:15:54.120Z,987.03
2018-01-20T03:16:54.215Z,986.99
2018-01-20T03:17:54.174Z,987.01
2018-01-20T03:18:54.202Z,987.03
2018-01-20T03:19:54.235Z,987.01
2018-01-20T03:20:54.272Z,987.03
2018-01-20T03:21:54.294Z,986.96
2018-01-20T03:22:54.324Z,987.01
2018-01-20T03:23:54.676Z,986.94
2018-01-20T03:24:54.380Z,986.90
2018-01-20T03:25:54.462Z,986.98
2018-01-20T03:26:54.436Z,986.92
2018-01-20T03:27:54.466Z,986.96
2018-01-20T03:28:54.497Z,986.95
2018-01-20T03:29:54.524Z,987.02
2018-01-20T03:30:54.556Z,987.01
2018-01-20T03:31:54.584Z,986.98
2018-01-20T03:32:54.620Z,986.95
2018-01-20T03:33:54.644Z,986.95
2018-01-20T03:34:54.670Z,986.92
2018-01-20T03:35:54.700Z,986.90
2018-01-20T03:36:54.731Z,986.95
2018-01-20T03:37:54.765Z,986.96
2018-01-20T03:38:54.789Z,986.97
2018-01-20T03:39:54.817Z,987.00
2018-01-20T03:40:54.920Z,986.99
2018-01-20T03:41:54.876Z,987.00
2018-01-20T03:42:54.906Z,986.98
2018-01-20T03:43:54.937Z,986.98
2018-01-20T03:44:54.967Z,987.06
2018-01-20T03:45:54.997Z,987.01
2018-01-20T03:46:55.036Z,987.05
2018-01-20T03:47:55.083Z,987.01
2018-01-20T03:48:55.080Z,987.06
2018-01-20T03:49:55.166Z,987.00
2018-01-20T03:50:55.147Z,986.98
2018-01-20T03:51:55.170Z,987.00
2018-01-20T03:52:55.200Z,986.98
2018-01-20T03:53:55.228Z,986.99
2018-01-20T03:54:55.257Z,986.95
2018-01-20T03:55:55.288Z,986.94
2018-01-20T03:56:55.326Z,986.95
2018-01-20T03:57:55.348Z,986.95
2018-01-20T03:58:55.381Z,986.93
2018-01-20T03:59:55.488Z,986.94
2018-01-20T04:00:55.433Z,986.97
2018-01-20T04:01:55.468Z,986.93
2018-01-20T04:02:55.492Z,986.96
2018-01-20T04:03:55.521Z,986.93
2018-01-20T04:04:55.558Z,986.95
2018-01-20T04:05:55.578Z,986.87
2018-01-20T04:06:55.608Z,986.80
2018-01-20T04:07:55.639Z,986.83
2018-01-20T04:08:55.669Z,986.86
2018-01-20T04:09:55.698Z,986.84
2018-01-20T04:10:55.724Z,986.87
2018-01-20T04:11:55.755Z,986.86
2018-01-20T04:12:55.797Z,986.86
2018-01-20T04:13:55.821Z,986.87
2018-01-20T04:14:55.841Z,986.90
2018-01-20T04:15:55.870Z,986.83
2018-01-20T04:16:55.970Z,986.85
2018-01-20T04:17:55.931Z,986.86
2018-01-20T04:18:55.960Z,986.85
2018-01-20T04:19:55.991Z,986.87
2018-01-20T04:20:56.020Z,986.80
2018-01-20T04:21:56.054Z,986.82
2018-01-20T04:22:56.081Z,986.77
2018-01-20T04:23:56.210Z,986.77
2018-01-20T04:24:56.138Z,986.75
2018-01-20T04:25:56.171Z,986.77
2018-01-20T04:26:56.196Z,986.78
2018-01-20T04:27:56.240Z,986.73
2018-01-20T04:28:56.257Z,986.76
2018-01-20T04:29:56.604Z,986.69
2018-01-20T04:30:56.347Z,986.73
2018-01-20T04:31:56.341Z,986.69
2018-01-20T04:32:56.373Z,986.70
2018-01-20T04:33:56.401Z,986.70
2018-01-20T04:34:56.432Z,986.70
2018-01-20T04:35:56.463Z,986.66
2018-01-20T04:36:56.497Z,986.62
2018-01-20T04:37:56.529Z,986.61
2018-01-20T04:38:56.550Z,986.59
2018-01-20T04:39:56.584Z,986.57
2018-01-20T04:40:56.616Z,986.55
2018-01-20T04:41:56.638Z,986.55
2018-01-20T04:42:56.664Z,986.55
2018-01-20T04:43:56.696Z,986.52
2018-01-20T04:44:56.725Z,986.55
2018-01-20T04:45:56.758Z,986.58
2018-01-20T04:46:56.784Z,986.54
2018-01-20T04:47:56.812Z,986.52
2018-01-20T04:48:56.846Z,986.49
2018-01-20T04:49:56.873Z,986.49
2018-01-20T04:50:56.903Z,986.46
2018-01-20T04:51:56.934Z,986.46
2018-01-20T04:52:56.964Z,986.48
2018-01-20T04:53:56.990Z,986.46
2018-01-20T04:54:57.018Z,986.47
2018-01-20T04:55:57.048Z,986.47
2018-01-20T04:56:57.078Z,986.49
2018-01-20T04:57:57.109Z,986.43
2018-01-20T04:58:57.136Z,986.40
2018-01-20T04:59:57.219Z,986.40
2018-01-20T05:00:57.197Z,986.36
2018-01-20T05:01:57.224Z,986.34
2018-01-20T05:02:57.256Z,986.34
2018-01-20T05:03:57.285Z,986.37
2018-01-20T05:04:57.317Z,986.33
2018-01-20T05:05:57.346Z,986.35
2018-01-20T05:06:57.410Z,986.35
2018-01-20T05:07:57.405Z,986.32
2018-01-20T05:08:57.433Z,986.29
2018-01-20T05:09:57.473Z,986.28
2018-01-20T05:10:57.490Z,986.28
2018-01-20T05:11:57.520Z,986.29
2018-01-20T05:12:57.553Z,986.31
2018-01-20T05:13:57.579Z,986.30
2018-01-20T05:14:57.609Z,986.26
2018-01-20T05:15:57.639Z,986.23
2018-01-20T05:16:57.669Z,986.23
2018-01-20T05:17:57.698Z,986.25
2018-01-20T05:18:57.735Z,986.24
2018-01-20T05:19:57.757Z,986.27
2018-01-20T05:20:57.787Z,986.26
2018-01-20T05:21:57.815Z,986.24
2018-01-20T05:22:57.861Z,986.20
2018-01-20T05:23:57.935Z,986.22
2018-01-20T05:24:57.902Z,986.20
2018-01-20T05:25:57.934Z,986.15
2018-01-20T05:26:57.960Z,986.15
2018-01-20T05:27:57.993Z,986.18
2018-01-20T05:28:58.022Z,986.20
2018-01-20T05:29:58.050Z,986.16
2018-01-20T05:30:58.078Z,986.13
2018-01-20T05:31:58.107Z,986.12
2018-01-20T05:32:58.140Z,986.10
2018-01-20T05:33:58.168Z,986.14
2018-01-20T05:34:58.193Z,986.18
2018-01-20T05:35:58.222Z,986.19
2018-01-20T05:36:58.253Z,986.18
2018-01-20T05:37:58.283Z,986.16
2018-01-20T05:38:58.314Z,986.17
2018-01-20T05:39:58.340Z,986.18
2018-01-20T05:40:58.373Z,986.21
2018-01-20T05:41:58.401Z,986.19
2018-01-20T05:42:58.435Z,986.23
2018-01-20T05:43:58.459Z,986.24
2018-01-20T05:44:58.489Z,986.18
2018-01-20T05:45:58.591Z,986.27
2018-01-20T05:46:58.548Z,986.24
2018-01-20T05:47:58.575Z,986.25
2018-01-20T05:48:58.606Z,986.24
2018-01-20T05:49:58.636Z,986.27
2018-01-20T05:50:58.663Z,986.28
2018-01-20T05:51:58.693Z,986.28
2018-01-20T05:52:58.790Z,986.26
2018-01-20T05:53:58.751Z,986.31
2018-01-20T05:54:58.781Z,986.26
2018-01-20T05:55:58.812Z,986.23
2018-01-20T05:56:58.841Z,986.26
2018-01-20T05:57:58.872Z,986.22
2018-01-20T05:58:58.902Z,986.17
2018-01-20T05:59:58.929Z,986.19
2018-01-20T06:00:58.956Z,986.16
2018-01-20T06:01:58.987Z,986.16
2018-01-20T06:02:59.023Z,986.16
2018-01-20T06:03:59.044Z,986.20
2018-01-20T06:04:59.074Z,986.11
2018-01-20T06:05:59.101Z,986.11
2018-01-20T06:06:59.131Z,986.17
2018-01-20T06:07:59.163Z,986.15
2018-01-20T06:08:59.193Z,986.19
2018-01-20T06:09:59.287Z,986.15
2018-01-20T06:10:59.272Z,986.20
2018-01-20T06:11:59.277Z,986.21
2018-01-20T06:12:59.307Z,986.22
2018-01-20T06:13:59.335Z,986.24
2018-01-20T06:14:59.367Z,986.23
2018-01-20T06:15:59.395Z,986.27
2018-01-20T06:16:59.422Z,986.31
2018-01-20T06:17:59.452Z,986.33
2018-01-20T06:18:59.483Z,986.31
2018-01-20T06:19:59.514Z,986.32
2018-01-20T06:20:59.542Z,986.31
2018-01-20T06:21:59.573Z,986.31
2018-01-20T06:22:59.599Z,986.29
2018-01-20T06:23:59.635Z,986.32
2018-01-20T06:24:59.656Z,986.29
2018-01-20T06:25:59.689Z,986.26
2018-01-20T06:26:59.723Z,986.23
2018-01-20T06:27:59.744Z,986.29
2018-01-20T06:28:59.850Z,986.25
2018-01-20T06:29:59.805Z,986.24
2018-01-20T06:30:59.834Z,986.19
2018-01-20T06:31:59.866Z,986.18
2018-01-20T06:32:59.890Z,986.16
2018-01-20T06:33:59.921Z,986.19
2018-01-20T06:35:00.151Z,986.19
2018-01-20T06:35:59.979Z,986.17
2018-01-20T06:37:00.009Z,986.12
2018-01-20T06:38:00.040Z,986.12
2018-01-20T06:39:00.069Z,986.13
2018-01-20T06:40:00.098Z,986.11
2018-01-20T06:41:00.443Z,986.08
2018-01-20T06:42:00.158Z,986.05
2018-01-20T06:43:00.191Z,986.06
2018-01-20T06:44:00.212Z,986.10
2018-01-20T06:45:00.247Z,986.08
2018-01-20T06:46:00.368Z,986.10
2018-01-20T06:47:00.308Z,986.12
2018-01-20T06:48:00.330Z,986.08
2018-01-20T06:49:00.362Z,986.04
2018-01-20T06:50:00.389Z,986.04
2018-01-20T06:51:00.419Z,986.04
2018-01-20T06:52:00.447Z,986.03
2018-01-20T06:53:00.477Z,986.05
2018-01-20T06:54:00.506Z,986.05
2018-01-20T06:55:00.550Z,985.98
2018-01-20T06:56:00.567Z,985.99
2018-01-20T06:57:00.592Z,985.99
2018-01-20T06:58:00.622Z,985.97
2018-01-20T06:59:00.651Z,985.95
2018-01-20T07:00:00.681Z,985.98
2018-01-20T07:01:00.713Z,986.02
2018-01-20T07:02:00.741Z,986.02
2018-01-20T07:03:00.971Z,986.03
2018-01-20T07:04:00.798Z,986.07
2018-01-20T07:05:00.828Z,986.06
2018-01-20T07:06:00.857Z,986.10
2018-01-20T07:07:00.889Z,986.09
2018-01-20T07:08:00.930Z,986.04
2018-01-20T07:09:00.949Z,986.03
2018-01-20T07:10:00.993Z,986.03
2018-01-20T07:11:01.008Z,986.04
2018-01-20T07:12:01.035Z,986.04
2018-01-20T07:13:01.065Z,986.06
2018-01-20T07:14:01.093Z,986.05
2018-01-20T07:15:01.125Z,986.05
2018-01-20T07:16:01.152Z,986.10
2018-01-20T07:17:01.184Z,986.07
2018-01-20T07:18:01.216Z,986.07
2018-01-20T07:19:01.245Z,986.13
2018-01-20T07:20:01.270Z,986.08
2018-01-20T07:21:01.299Z,986.11
2018-01-20T07:22:01.437Z,986.08
2018-01-20T07:23:01.360Z,986.10
2018-01-20T07:24:01.391Z,986.09
2018-01-20T07:25:01.420Z,986.15
2018-01-20T07:26:01.446Z,986.13
2018-01-20T07:27:01.477Z,986.12
2018-01-20T07:28:01.506Z,986.16
2018-01-20T07:29:01.537Z,986.20
2018-01-20T07:30:01.564Z,986.21
2018-01-20T07:31:01.593Z,986.17
2018-01-20T07:32:01.624Z,986.19
2018-01-20T07:33:01.654Z,986.21
2018-01-20T07:34:01.681Z,986.22
2018-01-20T07:35:01.766Z,986.18
2018-01-20T07:36:01.741Z,986.16
2018-01-20T07:37:01.780Z,986.20
2018-01-20T07:38:01.801Z,986.17
2018-01-20T07:39:01.836Z,986.18
2018-01-20T07:40:01.860Z,986.19
2018-01-20T07:41:01.894Z,986.20
2018-01-20T07:42:01.977Z,986.21
2018-01-20T07:43:01.947Z,986.20
2018-01-20T07:44:01.984Z,986.22
2018-01-20T07:45:02.008Z,986.17
2018-01-20T07:46:02.113Z,986.21
2018-01-20T07:47:02.065Z,986.18
2018-01-20T07:48:02.098Z,986.20
2018-01-20T07:49:02.126Z,986.19
2018-01-20T07:50:02.157Z,986.19
2018-01-20T07:51:02.387Z,986.17
2018-01-20T07:52:02.219Z,986.22
2018-01-20T07:53:02.252Z,986.20
2018-01-20T07:54:02.287Z,986.22
2018-01-20T07:55:02.307Z,986.19
2018-01-20T07:56:02.354Z,986.17
2018-01-20T07:57:02.365Z,986.19
2018-01-20T07:58:02.398Z,986.19
2018-01-20T07:59:02.425Z,986.19
2018-01-20T08:00:02.456Z,986.18
2018-01-20T08:01:02.485Z,986.20
2018-01-20T08:02:02.520Z,986.23
2018-01-20T08:03:02.908Z,986.23
2018-01-20T08:04:02.574Z,986.19
2018-01-20T08:05:02.607Z,986.20
2018-01-20T08:06:02.638Z,986.18
2018-01-20T08:07:02.661Z,986.19
2018-01-20T08:08:02.691Z,986.24
2018-01-20T08:09:02.722Z,986.20
2018-01-20T08:10:02.856Z,986.19
2018-01-20T08:11:02.782Z,986.22
2018-01-20T08:12:02.810Z,986.20
2018-01-20T08:13:02.841Z,986.16
2018-01-20T08:14:03.185Z,986.20
2018-01-20T08:15:02.960Z,986.17
2018-01-20T08:16:02.929Z,986.19
2018-01-20T08:17:02.958Z,986.23
2018-01-20T08:18:02.988Z,986.18
2018-01-20T08:19:03.018Z,986.20
2018-01-20T08:20:03.049Z,986.21
2018-01-20T08:21:03.078Z,986.19
2018-01-20T08:22:03.133Z,986.15
2018-01-20T08:23:03.144Z,986.17
2018-01-20T08:24:03.168Z,986.08
2018-01-20T08:25:03.198Z,986.10
2018-01-20T08:26:03.242Z,986.09
2018-01-20T08:27:03.257Z,986.10
2018-01-20T08:28:03.287Z,986.14
2018-01-20T08:29:03.318Z,986.14
2018-01-20T08:30:03.353Z,986.10
2018-01-20T08:31:03.399Z,986.15
2018-01-20T08:32:03.409Z,986.14
2018-01-20T08:33:03.438Z,986.09
2018-01-20T08:34:03.470Z,986.07
2018-01-20T08:35:03.511Z,986.07
2018-01-20T08:36:03.529Z,986.08
2018-01-20T08:37:03.562Z,986.02
2018-01-20T08:38:03.591Z,986.04
2018-01-20T08:39:03.640Z,986.01
2018-01-20T08:40:03.849Z,986.02
2018-01-20T08:41:03.678Z,986.00
2018-01-20T08:42:03.710Z,985.96
2018-01-20T08:43:03.742Z,985.98
2018-01-20T08:44:03.777Z,985.97
2018-01-20T08:45:03.801Z,985.93
2018-01-20T08:46:03.860Z,986.03
2018-01-20T08:47:03.868Z,986.01
2018-01-20T08:48:03.889Z,986.03
2018-01-20T08:49:03.921Z,986.02
2018-01-20T08:50:03.951Z,986.00
2018-01-20T08:51:03.983Z,986.01
2018-01-20T08:52:04.010Z,986.01
2018-01-20T08:53:04.053Z,986.04
2018-01-20T08:54:04.071Z,986.05
2018-01-20T08:55:04.101Z,986.06
2018-01-20T08:56:04.132Z,986.03
2018-01-20T08:57:04.161Z,986.00
2018-01-20T08:58:04.192Z,986.01
2018-01-20T08:59:04.237Z,985.99
2018-01-20T09:00:05.052Z,986.04
2018-01-20T09:01:04.282Z,985.99
2018-01-20T09:02:04.312Z,986.05
2018-01-20T09:03:04.344Z,986.09
2018-01-20T09:05:04.399Z,986.07
2018-01-20T09:06:04.432Z,986.06
2018-01-20T09:07:04.463Z,986.08
2018-01-20T09:08:04.492Z,986.08
2018-01-20T09:09:04.530Z,986.01
2018-01-20T09:10:04.552Z,986.06
2018-01-20T09:11:04.582Z,986.09
2018-01-20T09:12:04.614Z,985.99
2018-01-20T09:13:04.644Z,985.98
2018-01-20T09:14:04.674Z,985.94
2018-01-20T09:15:04.715Z,985.94
2018-01-20T09:16:04.734Z,985.92
2018-01-20T09:17:04.766Z,985.92
2018-01-20T09:18:04.795Z,985.93
2018-01-20T09:19:04.822Z,985.97
2018-01-20T09:20:04.854Z,985.95
2018-01-20T09:21:04.884Z,985.92
2018-01-20T09:22:05.019Z,985.91
2018-01-20T09:23:04.946Z,985.89
2018-01-20T09:24:04.988Z,985.83
2018-01-20T09:25:05.006Z,985.82
2018-01-20T09:26:05.037Z,985.83
2018-01-20T09:27:05.066Z,985.83
2018-01-20T09:28:05.095Z,985.86
2018-01-20T09:29:05.126Z,985.85
2018-01-20T09:30:05.157Z,985.87
2018-01-20T09:31:05.193Z,985.89
2018-01-20T09:32:05.215Z,985.90
2018-01-20T09:33:05.252Z,985.86
2018-01-20T09:34:05.294Z,985.88
2018-01-20T09:35:05.307Z,985.84
2018-01-20T09:36:05.339Z,985.82
2018-01-20T09:37:05.369Z,985.80
2018-01-20T09:38:05.414Z,985.74
2018-01-20T09:39:05.436Z,985.75
2018-01-20T09:40:05.458Z,985.74
2018-01-20T09:41:05.495Z,985.78
2018-01-20T09:42:05.521Z,985.79
2018-01-20T09:43:05.612Z,985.79
2018-01-20T09:44:05.583Z,985.76
2018-01-20T09:45:05.617Z,985.76
2018-01-20T09:46:05.647Z,985.70
2018-01-20T09:47:05.677Z,985.74
2018-01-20T09:48:05.707Z,985.75
2018-01-20T09:49:05.737Z,985.75
2018-01-20T09:50:05.772Z,985.75
2018-01-20T09:51:05.798Z,985.71
2018-01-20T09:52:05.842Z,985.71
2018-01-20T09:53:05.862Z,985.69
2018-01-20T09:54:05.890Z,985.64
2018-01-20T09:55:05.922Z,985.68
2018-01-20T09:56:05.954Z,985.70
2018-01-20T09:57:05.989Z,985.65
2018-01-20T09:58:06.220Z,985.70
2018-01-20T09:59:06.043Z,985.66
2018-01-20T10:00:06.091Z,985.64
2018-01-20T10:01:06.104Z,985.67
2018-01-20T10:02:06.141Z,985.65
2018-01-20T10:03:06.173Z,985.66
2018-01-20T10:04:06.199Z,985.62
2018-01-20T10:05:06.229Z,985.59
2018-01-20T10:06:06.280Z,985.58
2018-01-20T10:07:06.290Z,985.59
2018-01-20T10:08:06.333Z,985.61
2018-01-20T10:09:06.369Z,985.58
2018-01-20T10:10:06.398Z,985.60
2018-01-20T10:11:06.420Z,985.56
2018-01-20T10:12:06.445Z,985.52
2018-01-20T10:13:06.474Z,985.59
2018-01-20T10:14:06.506Z,985.51
2018-01-20T10:15:06.602Z,985.51
2018-01-20T10:16:06.582Z,985.49
2018-01-20T10:17:06.611Z,985.50
2018-01-20T10:18:06.629Z,985.48
2018-01-20T10:19:06.660Z,985.46
2018-01-20T10:20:06.690Z,985.49
2018-01-20T10:21:06.721Z,985.46
2018-01-20T10:22:07.100Z,985.48
2018-01-20T10:23:06.786Z,985.50
2018-01-20T10:24:06.814Z,985.44
2018-01-20T10:25:06.901Z,985.44
2018-01-20T10:26:06.881Z,985.45
2018-01-20T10:27:06.907Z,985.46
2018-01-20T10:28:06.942Z,985.47
2018-01-20T10:29:06.978Z,985.43
2018-01-20T10:30:07.001Z,985.43
2018-01-20T10:31:07.033Z,985.44
2018-01-20T10:32:07.064Z,985.44
2018-01-20T10:33:07.098Z,985.41
2018-01-20T10:34:07.133Z,985.40
2018-01-20T10:35:07.156Z,985.32
2018-01-20T10:36:07.196Z,985.35
2018-01-20T10:37:07.223Z,985.33
2018-01-20T10:38:07.256Z,985.31
2018-01-20T10:39:07.318Z,985.29
2018-01-20T10:40:07.327Z,985.28
2018-01-20T10:41:07.349Z,985.23
2018-01-20T10:42:07.376Z,985.27
2018-01-20T10:43:07.405Z,985.22
2018-01-20T10:44:07.436Z,985.17
2018-01-20T10:45:07.465Z,985.16
2018-01-20T10:46:07.563Z,985.11
2018-01-20T10:47:07.577Z,985.08
2018-01-20T10:48:07.559Z,985.09
2018-01-20T10:49:07.595Z,985.04
2018-01-20T10:50:07.625Z,985.06
2018-01-20T10:51:07.664Z,985.03
2018-01-20T10:52:07.691Z,985.00
2018-01-20T10:53:07.726Z,984.96
2018-01-20T10:54:07.749Z,984.97
2018-01-20T10:55:07.778Z,984.96
2018-01-20T10:56:07.808Z,984.96
2018-01-20T10:57:07.840Z,984.95
2018-01-20T10:58:07.936Z,984.94
2018-01-20T10:59:07.901Z,984.92
2018-01-20T11:00:07.988Z,984.92
2018-01-20T11:01:07.965Z,984.88
2018-01-20T11:02:07.997Z,984.91
2018-01-20T11:03:08.025Z,984.87
2018-01-20T11:04:08.055Z,984.82
2018-01-20T11:05:08.177Z,984.83
2018-01-20T11:06:08.118Z,984.83
2018-01-20T11:07:08.149Z,984.82
2018-01-20T11:08:08.178Z,984.78
2018-01-20T11:09:08.221Z,984.74
2018-01-20T11:10:08.246Z,984.70
2018-01-20T11:11:08.277Z,984.64
2018-01-20T11:12:08.306Z,984.64
2018-01-20T11:13:08.337Z,984.60
2018-01-20T11:14:08.367Z,984.55
2018-01-20T11:15:08.399Z,984.53
2018-01-20T11:16:08.428Z,984.54
2018-01-20T11:17:08.459Z,984.50
2018-01-20T11:18:08.492Z,984.47
2018-01-20T11:19:08.521Z,984.43
2018-01-20T11:20:08.559Z,984.38
2018-01-20T11:21:08.596Z,984.39
2018-01-20T11:22:08.678Z,984.37
2018-01-20T11:23:08.662Z,984.33
2018-01-20T11:24:08.679Z,984.31
2018-01-20T11:25:08.713Z,984.27
2018-01-20T11:26:08.738Z,984.25
2018-01-20T11:27:08.768Z,984.26
2018-01-20T11:28:08.800Z,984.24
2018-01-20T11:29:08.931Z,984.23
2018-01-20T11:30:08.864Z,984.20
2018-01-20T11:31:08.896Z,984.19
2018-01-20T11:32:08.930Z,984.16
2018-01-20T11:33:08.958Z,984.14
2018-01-20T11:34:09.024Z,984.10
2018-01-20T11:35:09.022Z,984.04
2018-01-20T11:36:09.052Z,984.05
2018-01-20T11:37:09.086Z,984.03
2018-01-20T11:38:09.115Z,984.06
2018-01-20T11:39:09.145Z,984.02
2018-01-20T11:40:09.179Z,984.02
2018-01-20T11:41:09.216Z,983.97
2018-01-20T11:42:09.242Z,983.96
2018-01-20T11:43:09.269Z,983.94
2018-01-20T11:44:09.328Z,983.92
2018-01-20T11:45:09.333Z,983.89
2018-01-20T11:46:09.382Z,983.86
2018-01-20T11:47:09.425Z,983.82
2018-01-20T11:48:09.451Z,983.76
2018-01-20T11:49:09.461Z,983.74
2018-01-20T11:50:09.493Z,983.71
2018-01-20T11:51:09.523Z,983.65
2018-01-20T11:52:09.556Z,983.67
2018-01-20T11:53:09.586Z,983.61
2018-01-20T11:54:09.622Z,983.60
2018-01-20T11:55:09.652Z,983.61
2018-01-20T11:56:09.681Z,983.57
2018-01-20T11:57:09.711Z,983.55
2018-01-20T11:58:09.752Z,983.49
2018-01-20T11:59:09.773Z,983.50
2018-01-20T12:00:09.810Z,983.46
2018-01-20T12:01:09.842Z,983.41
2018-01-20T12:02:09.873Z,983.39
2018-01-20T12:03:09.905Z,983.37
2018-01-20T12:04:09.932Z,983.33
2018-01-20T12:05:10.037Z,983.31
2018-01-20T12:06:09.997Z,983.34
2018-01-20T12:07:10.032Z,983.31
2018-01-20T12:08:10.065Z,983.36
2018-01-20T12:09:10.094Z,983.34
2018-01-20T12:10:10.147Z,983.31
2018-01-20T12:11:10.155Z,983.29
2018-01-20T12:12:10.188Z,983.27
2018-01-20T12:13:10.233Z,983.30
2018-01-20T12:14:10.253Z,983.26
2018-01-20T12:15:10.283Z,983.26
2018-01-20T12:16:10.322Z,983.18
2018-01-20T12:17:10.345Z,983.18
2018-01-20T12:18:10.379Z,983.13
2018-01-20T12:19:10.411Z,983.08
2018-01-20T12:20:10.447Z,983.09
2018-01-20T12:21:10.481Z,983.04
2018-01-20T12:22:10.557Z,983.03
2018-01-20T12:23:10.538Z,982.99
2018-01-20T12:24:10.569Z,982.96
2018-01-20T12:25:10.604Z,982.97
2018-01-20T12:26:10.636Z,982.89
2018-01-20T12:27:10.696Z,982.91
2018-01-20T12:28:10.697Z,982.91
2018-01-20T12:29:10.728Z,982.89
2018-01-20T12:30:10.761Z,982.87